Wolf Creek Observed Data For Previous 48 Hours

Caption
Day and Hour Reservoir Elevation (behind dam)* Tailwater Elevation (below dam)* Average Hourly Discharge*
9/27/2016 1 AM CDT 702.25 545.75 1,870
9/27/2016 2 AM CDT 702.25 545.45 1,870
9/27/2016 3 AM CDT 702.25 545.25 1,870
9/27/2016 4 AM CDT 702.25 545.15 1,870
9/27/2016 5 AM CDT 702.25 545.15 1,870
9/27/2016 6 AM CDT 702.25 545.15 1,870
9/27/2016 7 AM CDT 702.20 545.10 1,870
9/27/2016 8 AM CDT 702.20 545.00 1,870
9/27/2016 9 AM CDT 702.20 544.90 1,870
9/27/2016 10 AM CDT 702.20 544.90 1,870
9/27/2016 11 AM CDT 702.20 544.80 1,870
9/27/2016 12 PM CDT 702.15 547.05 5,680
9/27/2016 1 PM CDT 702.15 551.05 11,260
9/27/2016 2 PM CDT 702.15 551.75 11,320
9/27/2016 3 PM CDT 702.10 552.10 11,320
9/27/2016 4 PM CDT 702.10 552.40 11,320
9/27/2016 5 PM CDT 702.10 552.60 11,320
9/27/2016 6 PM CDT 702.05 550.05 7,290
9/27/2016 7 PM CDT 702.04 549.64 5,740
9/27/2016 8 PM CDT 702.04 549.34 5,700
9/27/2016 9 PM CDT 702.04 548.64 5,700
9/27/2016 10 PM CDT 702.04 547.64 1,850
9/27/2016 11 PM CDT 702.04 546.64 1,860
9/28/2016 12 AM CDT 702.04 546.14 1,860
9/28/2016 1 AM CDT 702.04 545.74 1,870
9/28/2016 2 AM CDT 702.04 545.45 1,870
9/28/2016 3 AM CDT 702.04 545.24 1,870
9/28/2016 4 AM CDT 702.04 545.14 1,870
9/28/2016 5 AM CDT 702.04 545.14 1,870
9/28/2016 6 AM CDT 702.04 545.14 1,870
9/28/2016 7 AM CDT 702.00 545.00 1,870
9/28/2016 8 AM CDT 702.00 544.90 1,870
9/28/2016 9 AM CDT 702.00 544.80 1,870
9/28/2016 10 AM CDT 702.00 544.80 1,870
9/28/2016 11 AM CDT 702.00 544.80 1,870
9/28/2016 12 PM CDT 701.95 547.05 5,640
9/28/2016 1 PM CDT 701.95 551.55 11,320
9/28/2016 2 PM CDT 701.95 552.25 11,300
9/28/2016 3 PM CDT 701.90 552.30 11,300
9/28/2016 4 PM CDT 701.90 552.40 11,580
9/28/2016 5 PM CDT 701.90 552.50 11,660
9/28/2016 6 PM CDT 701.85 549.65 5,730
9/28/2016 7 PM CDT 701.85 549.75 5,730
9/28/2016 8 PM CDT 701.85 549.35 5,700
9/28/2016 9 PM CDT 701.85 549.15 5,700
9/28/2016 10 PM CDT 701.85 548.15 1,850
9/28/2016 11 PM CDT 701.85 547.85 1,850
9/29/2016 12 AM CDT 701.85 546.95 1,860
9/29/2016 1 AM CDT 701.85 545.45 1,860
9/29/2016 2 AM CDT 701.80 545.25 1,860
9/29/2016 3 AM CDT 701.80 545.10 1,860
9/29/2016 4 AM CDT 701.80 545.00 1,860
9/29/2016 5 AM CDT 701.80 545.00 1,860
9/29/2016 6 AM CDT 701.80 544.90 1,860

Elevations are in feet above sea level. Discharges are in cubic feet per second and are reported at the end of the hour.